Flight Track Log - Related Links

Times and Time Zones

All times are in EDT time to prevent confusion due to time zone crossing. See the SWA1810 flight status page for this flight to view local times or setup timezone preferences in your user account.

Time Position Orientation Groundspeed Altitude Reporting Facility
EDT Latitude Longitude Course Direction KTS MPH feet Rate Location/Type
Tue 12:59:44 PM 39.9967 -82.9339 273° West 166 191 2,100  Level Indianapolis Center
Tue 01:00:45 PM 39.9997 -83.0133 273° West 232 267 4,200 2,352 Climbing Indianapolis Center
Tue 01:01:49 PM 40.0067 -83.0842 277° West 215 247 7,000 3,000 Climbing Indianapolis Center
Tue 01:02:51 PM 40.0161 -83.1964 276° West 268 308 10,500 2,371 Climbing Indianapolis Center
Tue 01:03:53 PM 40.0086 -83.3075 265° West 314 361 11,900 2,049 Climbing Indianapolis Center
Tue 01:04:54 PM 39.9928 -83.4325 261° West 349 402 14,700 2,683 Climbing Indianapolis Center
Tue 01:05:56 PM 39.9756 -83.5614 260° West 363 418 17,400 2,226 Climbing Indianapolis Center
Tue 01:06:58 PM 39.9575 -83.6964 260° West 379 436 19,300 1,887 Climbing Indianapolis Center
Tue 01:08:00 PM 39.9389 -83.8417 261° West 404 465 21,300 1,935 Climbing Indianapolis Center
Tue 01:09:02 PM 39.9164 -84.0150 260° West 412 474 23,300 2,195 Climbing Indianapolis Center
Tue 01:10:03 PM 39.8964 -84.1608 260° West 407 468 25,800 1,317 Climbing Indianapolis Center
Tue 01:11:05 PM 39.8769 -84.3050 260° West 401 461 26,000 97 Climbing Indianapolis Center
Tue 01:12:07 PM 39.8575 -84.4497 260° West 404 465 26,000 145 Level Indianapolis Center
Tue 01:13:09 PM 39.8367 -84.5933 259° West 403 464 26,300 919 Climbing Indianapolis Center
Tue 01:14:11 PM 39.8169 -84.7389 260° West 404 465 27,900 2,537 Climbing Indianapolis Center
Tue 01:15:12 PM 39.7967 -84.8742 259° West 381 438 31,500 2,683 Climbing Indianapolis Center
Tue 01:16:14 PM 39.7800 -84.9989 260° West 351 404 33,400 1,306 Climbing Indianapolis Center
Tue 01:17:16 PM 39.7597 -85.1475 260° West 355 409 34,200 1,113 Climbing Indianapolis Center
Tue 01:18:18 PM 39.7397 -85.2786 259° West 365 420 35,700 878 Climbing Indianapolis Center
Tue 01:19:19 PM 39.7219 -85.4067 260° West 359 413 36,000 146 Climbing Indianapolis Center
Tue 01:20:21 PM 39.7050 -85.5319 260° West 352 405 36,000  Level Indianapolis Center
Tue 01:21:23 PM 39.6858 -85.6464 258° West 356 410 36,000  Level Indianapolis Center
Tue 01:22:25 PM 39.6522 -85.7944 254° West 358 412 36,000  Level Indianapolis Center
Tue 01:23:26 PM 39.6131 -85.9142 247° West 360 414 36,000  Level Indianapolis Center
Tue 01:24:28 PM 39.5742 -86.0319 247° West 356 410 36,000  Level Indianapolis Center
Tue 01:25:30 PM 39.5353 -86.1514 247° West 358 412 36,000  Level Indianapolis Center
Tue 01:26:31 PM 39.4978 -86.2711 248° West 357 411 36,000  Level Indianapolis Center
Tue 01:27:33 PM 39.4606 -86.3931 248° West 362 417 36,000  Level Indianapolis Center
Tue 01:28:35 PM 39.4233 -86.5142 248° West 362 417 36,000  Level Indianapolis Center
Tue 01:29:37 PM 39.3861 -86.6356 248° West 363 418 36,000  Level Indianapolis Center
Tue 01:30:38 PM 39.3553 -86.7869 255° West 359 413 36,000  Level Indianapolis Center
Tue 01:31:40 PM 39.3397 -86.9164 261° West 362 417 36,000  Level Indianapolis Center
Tue 01:32:42 PM 39.3247 -87.0481 262° West 368 423 36,000  Level Indianapolis Center
Tue 01:33:43 PM 39.3097 -87.1781 262° West 367 422 36,000  Level Indianapolis Center
Tue 01:34:45 PM 39.2931 -87.3094 261° West 369 425 36,000  Level Indianapolis Center
Tue 01:35:47 PM 39.2764 -87.4403 261° West 370 426 36,000  Level Indianapolis Center
Tue 01:36:48 PM 39.2603 -87.5717 261° West 371 427 36,000  Level Indianapolis Center
Tue 01:37:50 PM 39.2442 -87.7028 261° West 370 426 36,000  Level Indianapolis Center
Tue 01:38:52 PM 39.2244 -87.8625 261° West 375 432 36,000  Level Indianapolis Center
Tue 01:39:53 PM 39.2067 -87.9947 260° West 374 430 36,000  Level Indianapolis Center
Tue 01:40:57 PM 39.1900 -88.1269 261° West 372 428 36,000  Level Kansas City Center
Tue 01:42:02 PM 39.1728 -88.2608 261° West 376 433 36,000  Level Kansas City Center
Tue 01:43:02 PM 39.1558 -88.3914 261° West 371 427 36,000  Level Kansas City Center
Tue 01:44:05 PM 39.1367 -88.5247 260° West 374 430 36,000  Level Kansas City Center
Tue 01:45:07 PM 39.1189 -88.6619 261° West 378 435 36,000  Level Kansas City Center
Tue 01:46:07 PM 39.1008 -88.7950 260° West 378 435 36,000  Level Kansas City Center
Tue 01:47:10 PM 39.0786 -88.9556 260° West 380 437 36,000  Level Kansas City Center
Tue 01:48:11 PM 39.0603 -89.0892 260° West 381 438 36,000  Level Kansas City Center
Tue 01:49:12 PM 39.0411 -89.2342 260° West 382 440 36,000  Level Kansas City Center
Tue 01:50:14 PM 39.0219 -89.3683 260° West 384 442 36,000  Level Kansas City Center
Tue 01:51:15 PM 39.0019 -89.5100 260° West 378 435 36,000  Level Kansas City Center
Tue 01:52:19 PM 38.9839 -89.6431 260° West 379 436 36,000  Level Kansas City Center
Tue 01:53:20 PM 38.9647 -89.7747 259° West 377 434 36,000  Level Kansas City Center
Tue 01:54:20 PM 38.9442 -89.9167 259° West 377 434 36,000  Level Kansas City Center
Tue 01:55:23 PM 38.9258 -90.0453 260° West 379 436 36,000  Level Kansas City Center
Tue 01:56:26 PM 38.9061 -90.1892 260° West 374 430 36,000  Level Kansas City Center
Tue 01:57:26 PM 38.8869 -90.3228 260° West 378 435 36,000  Level Kansas City Center
Tue 01:58:27 PM 38.8675 -90.4572 260° West 380 437 36,000  Level Kansas City Center
Tue 01:59:30 PM 38.8483 -90.5903 260° West 375 432 36,000  Level Kansas City Center
Tue 02:00:31 PM 38.8303 -90.7272 260° West 377 434 36,000  Level Kansas City Center
Tue 02:01:34 PM 38.8117 -90.8622 260° West 383 441 36,000  Level Kansas City Center
Tue 02:02:35 PM 38.7936 -90.9958 260° West 385 443 36,000  Level Kansas City Center
Tue 02:03:37 PM 38.7758 -91.1294 260° West 383 441 36,000 629 Level Kansas City Center
Tue 02:04:39 PM 38.7572 -91.2614 260° West 381 438 37,300 984 Climbing Kansas City Center
Tue 02:05:39 PM 38.7361 -91.4186 260° West 377 434 38,000 339 Climbing Kansas City Center
Tue 02:06:43 PM 38.7183 -91.5503 260° West 376 433 38,000  Level Kansas City Center
Tue 02:07:44 PM 38.7022 -91.6833 261° West 374 430 38,000  Level Kansas City Center
Tue 02:08:45 PM 38.6828 -91.8122 259° West 371 427 38,000  Level Kansas City Center
Tue 02:09:48 PM 38.6636 -91.9467 260° West 378 435 38,000  Level Kansas City Center
Tue 02:10:49 PM 38.6453 -92.0764 260° West 374 430 38,000  Level Kansas City Center
Tue 02:11:50 PM 38.6269 -92.2056 260° West 372 428 38,000  Level Kansas City Center
Tue 02:12:53 PM 38.6044 -92.3600 259° West 369 425 38,000  Level Kansas City Center
Tue 02:13:54 PM 38.5853 -92.4850 259° West 364 419 38,000  Level Kansas City Center
Tue 02:14:56 PM 38.5669 -92.6136 260° West 365 420 38,000  Level Kansas City Center
Tue 02:15:57 PM 38.5478 -92.7436 259° West 368 423 38,000  Level Kansas City Center
Tue 02:16:58 PM 38.5269 -92.8733 258° West 371 427 38,000  Level Kansas City Center
Tue 02:18:02 PM 38.5072 -93.0025 259° West 371 427 38,000  Level Kansas City Center
Tue 02:19:03 PM 38.4878 -93.1325 259° West 373 429 38,000  Level Kansas City Center
Tue 02:20:05 PM 38.4639 -93.2883 259° West 373 429 38,000  Level Kansas City Center
Tue 02:21:06 PM 38.4439 -93.4172 259° West 371 427 38,000  Level Kansas City Center
Tue 02:22:07 PM 38.4247 -93.5481 259° West 374 430 38,000  Level Kansas City Center
Tue 02:23:08 PM 38.4033 -93.6778 258° West 373 429 38,000  Level Kansas City Center
Tue 02:24:12 PM 38.3825 -93.8058 258° West 371 427 38,000  Level Kansas City Center
Tue 02:25:13 PM 38.3631 -93.9331 259° West 367 422 38,000  Level Kansas City Center
Tue 02:26:13 PM 38.3419 -94.0619 258° West 369 425 38,000  Level Kansas City Center
Tue 02:27:17 PM 38.3197 -94.2025 259° West 368 423 38,000  Level Kansas City Center
Tue 02:28:17 PM 38.3006 -94.3236 259° West 366 421 38,000  Level Kansas City Center
Tue 02:29:18 PM 38.2767 -94.4658 258° West 366 421 38,000  Level Kansas City Center
Tue 02:30:22 PM 38.2567 -94.5869 258° West 366 421 38,000  Level Kansas City Center
Tue 02:31:24 PM 38.2386 -94.7067 259° West 364 419 38,000  Level Kansas City Center
Tue 02:32:25 PM 38.2161 -94.8483 259° West 364 419 38,000  Level Kansas City Center
Tue 02:33:25 PM 38.1969 -94.9678 258° West 362 417 38,000  Level Kansas City Center
Tue 02:34:28 PM 38.1744 -95.1081 259° West 362 417 38,000  Level Kansas City Center
Tue 02:35:30 PM 38.1550 -95.2269 258° West 359 413 38,000  Level Kansas City Center
Tue 02:36:31 PM 38.1314 -95.3642 258° West 357 411 38,000  Level Kansas City Center
Tue 02:37:31 PM 38.1106 -95.4842 258° West 358 412 38,000  Level Kansas City Center
Tue 02:38:33 PM 38.0900 -95.6000 257° West 357 411 38,000  Level Kansas City Center
Tue 02:39:37 PM 38.0667 -95.7375 258° West 356 410 38,000  Level Kansas City Center
Tue 02:40:38 PM 38.0467 -95.8542 258° West 354 407 38,000  Level Kansas City Center
Tue 02:41:39 PM 38.0233 -95.9911 258° West 356 410 38,000  Level Kansas City Center
Tue 02:42:40 PM 38.0044 -96.1097 259° West 357 411 38,000  Level Kansas City Center
Tue 02:43:44 PM 37.9811 -96.2431 258° West 357 411 38,000  Level Kansas City Center
Tue 02:44:46 PM 37.9606 -96.3664 258° West 357 411 38,000  Level Kansas City Center
Tue 02:45:47 PM 37.9394 -96.4900 258° West 359 413 38,000  Level Kansas City Center
Tue 02:46:49 PM 37.9197 -96.6131 259° West 357 411 38,000  Level Kansas City Center
Tue 02:47:49 PM 37.8983 -96.7361 258° West 357 411 38,000  Level Kansas City Center
Tue 02:48:53 PM 37.8778 -96.8572 258° West 353 406 38,000  Level Kansas City Center
Tue 02:49:53 PM 37.8561 -96.9789 257° West 354 407 38,000  Level Kansas City Center
Tue 02:50:56 PM 37.8336 -97.1019 257° West 358 412 38,000  Level Kansas City Center
Tue 02:51:57 PM 37.8078 -97.2475 257° West 355 409 38,000  Level Kansas City Center
Tue 02:52:59 PM 37.7858 -97.3686 257° West 353 406 38,000  Level Kansas City Center
Tue 02:53:59 PM 37.7631 -97.4881 256° West 354 407 38,000  Level Kansas City Center
Tue 02:55:03 PM 37.7400 -97.6100 257° West 355 409 38,000  Level Kansas City Center
Tue 02:56:04 PM 37.7169 -97.7325 257° West 357 411 38,000  Level Kansas City Center
Tue 02:57:05 PM 37.6922 -97.8558 256° West 359 413 38,000  Level Kansas City Center
Tue 02:58:09 PM 37.6697 -97.9789 257° West 359 413 38,000  Level Kansas City Center
Tue 02:59:09 PM 37.6408 -98.1256 256° West 359 413 38,000  Level Kansas City Center
Tue 03:00:11 PM 37.6217 -98.2292 257° West 354 407 38,000  Level Kansas City Center
Tue 03:01:12 PM 37.5958 -98.3506 255° West 356 410 38,000  Level Kansas City Center
Tue 03:02:13 PM 37.5678 -98.4936 256° West 352 405 38,000  Level Kansas City Center
Tue 03:03:16 PM 37.5439 -98.6108 256° West 347 399 38,000  Level Kansas City Center
Tue 03:04:17 PM 37.5200 -98.7300 256° West 348 400 38,000  Level Kansas City Center
Tue 03:05:18 PM 37.4950 -98.8486 255° West 350 403 38,000  Level Kansas City Center
Tue 03:06:20 PM 37.4717 -98.9692 256° West 352 405 38,000  Level Kansas City Center
Tue 03:07:22 PM 37.4469 -99.0894 256° West 354 407 38,000  Level Kansas City Center
Tue 03:08:23 PM 37.4222 -99.2097 256° West 355 409 38,000  Level Kansas City Center
Tue 03:09:24 PM 37.3981 -99.3308 256° West 356 410 38,000  Level Kansas City Center
Tue 03:10:27 PM 37.3700 -99.4631 255° West 356 410 38,000  Level Kansas City Center
Tue 03:11:28 PM 37.3408 -99.5981 255° West 356 410 38,000  Level Kansas City Center
Tue 03:12:29 PM 37.3178 -99.7133 256° West 356 410 38,000  Level Kansas City Center
Tue 03:13:33 PM 37.2878 -99.8494 255° West 359 413 38,000  Level Kansas City Center
Tue 03:15:34 PM 37.2389 -100.0822 255° West 361 415 38,000  Level Kansas City Center
Tue 03:16:35 PM 37.2094 -100.2189 255° West 364 419 38,000  Level Kansas City Center
Tue 03:17:37 PM 37.1842 -100.3356 255° West 362 417 38,000  Level Kansas City Center
Tue 03:18:41 PM 37.1553 -100.4708 255° West 359 413 38,000  Level Kansas City Center
Tue 03:19:42 PM 37.1289 -100.5856 254° West 357 411 38,000  Level Kansas City Center
Tue 03:20:42 PM 37.1044 -100.7014 255° West 358 412 38,000  Level Kansas City Center
Tue 03:21:46 PM 37.0742 -100.8367 254° West 359 413 38,000  Level Kansas City Center
Tue 03:22:47 PM 37.0483 -100.9525 254° West 359 413 38,000  Level Kansas City Center
Tue 03:23:47 PM 37.0108 -101.0825 250° West 356 410 38,000  Level Kansas City Center
Tue 03:24:51 PM 36.9864 -101.1981 255° West 357 411 38,000  Level Kansas City Center
Tue 03:25:51 PM 36.9622 -101.3142 255° West 358 412 38,000  Level Kansas City Center
Tue 03:26:55 PM 36.9325 -101.4481 255° West 358 412 38,000  Level Kansas City Center
Tue 03:27:56 PM 36.9069 -101.5619 254° West 356 410 38,000  Level Kansas City Center
Tue 03:28:57 PM 36.8786 -101.6964 255° West 358 412 38,000  Level Kansas City Center
Tue 03:29:12 PM 36.8744 -101.7161 255° West 358 412 38,000  Level Albuquerque Center
Tue 03:30:14 PM 36.8444 -101.8486 254° West 356 410 38,000  Level Albuquerque Center
Tue 03:31:16 PM 36.8200 -101.9644 255° West 357 411 38,000  Level Albuquerque Center
Tue 03:32:18 PM 36.7897 -102.0975 254° West 358 412 38,000  Level Albuquerque Center
Tue 03:33:20 PM 36.7625 -102.2200 255° West 357 411 38,000  Level Albuquerque Center
Tue 03:34:22 PM 36.7358 -102.3394 254° West 358 412 38,000  Level Albuquerque Center
Tue 03:35:24 PM 36.7075 -102.4603 254° West 364 419 38,000  Level Albuquerque Center
Tue 03:36:26 PM 36.6769 -102.6031 255° West 366 421 38,000  Level Albuquerque Center
Tue 03:37:28 PM 36.6500 -102.7206 254° West 367 422 38,000  Level Albuquerque Center
Tue 03:38:31 PM 36.6183 -102.8478 253° West 364 419 38,000  Level Albuquerque Center
Tue 03:39:33 PM 36.5917 -102.9706 255° West 366 421 38,000  Level Albuquerque Center
Tue 03:40:35 PM 36.5639 -103.0931 254° West 364 419 38,000  Level Albuquerque Center
Tue 03:41:37 PM 36.5353 -103.2156 254° West 366 421 38,000  Level Albuquerque Center
Tue 03:42:39 PM 36.5064 -103.3367 254° West 364 419 38,000  Level Albuquerque Center
Tue 03:43:41 PM 36.4775 -103.4583 254° West 365 420 38,000  Level Albuquerque Center
Tue 03:44:43 PM 36.4447 -103.6000 254° West 363 418 38,000  Level Albuquerque Center
Tue 03:45:45 PM 36.4150 -103.7214 253° West 364 419 38,000  Level Albuquerque Center
Tue 03:46:47 PM 36.3850 -103.8433 253° West 367 422 38,000  Level Albuquerque Center
Tue 03:47:49 PM 36.3567 -103.9669 254° West 368 423 38,000  Level Albuquerque Center
Tue 03:48:51 PM 36.3264 -104.0878 253° West 368 423 38,000  Level Albuquerque Center
Tue 03:49:53 PM 36.2967 -104.2106 253° West 369 425 38,000  Level Albuquerque Center
Tue 03:50:55 PM 36.2600 -104.3536 252° West 373 429 38,000  Level Albuquerque Center
Tue 03:51:57 PM 36.2294 -104.4767 253° West 373 429 38,000  Level Albuquerque Center
Tue 03:52:59 PM 36.2008 -104.5972 254° West 366 421 38,000  Level Albuquerque Center
Tue 03:54:01 PM 36.1697 -104.7178 252° West 367 422 38,000  Level Albuquerque Center
Tue 03:55:03 PM 36.1403 -104.8392 253° West 366 421 38,000  Level Albuquerque Center
Tue 03:56:05 PM 36.1092 -104.9633 253° West 372 428 38,000  Level Albuquerque Center
Tue 03:57:06 PM 36.0767 -105.0864 252° West 375 432 38,000  Level Albuquerque Center
Tue 03:58:08 PM 36.0406 -105.2289 253° West 371 427 38,000  Level Albuquerque Center
Tue 03:59:10 PM 36.0094 -105.3517 253° West 372 428 38,000  Level Albuquerque Center
Tue 04:00:12 PM 35.9778 -105.4750 252° West 374 430 38,000  Level Albuquerque Center
Tue 04:01:14 PM 35.9511 -105.5797 253° West 371 427 38,000  Level Albuquerque Center
Tue 04:02:16 PM 35.9131 -105.7228 252° West 368 423 38,000  Level Albuquerque Center
Tue 04:03:18 PM 35.8836 -105.8406 253° West 363 418 38,000  Level Albuquerque Center
Tue 04:04:19 PM 35.8525 -105.9597 252° West 364 419 38,000  Level Albuquerque Center
Tue 04:05:21 PM 35.8219 -106.0764 252° West 363 418 38,000  Level Albuquerque Center
Tue 04:06:23 PM 35.7886 -106.2094 253° West 362 417 38,000  Level Albuquerque Center
Tue 04:07:25 PM 35.7581 -106.3217 251° West 362 417 38,000  Level Albuquerque Center
Tue 04:08:27 PM 35.7233 -106.4542 252° West 363 418 38,000  Level Albuquerque Center
Tue 04:09:28 PM 35.6922 -106.5669 251° West 364 419 38,000  Level Albuquerque Center
Tue 04:10:30 PM 35.6575 -106.6997 252° West 365 420 38,000  Level Albuquerque Center
Tue 04:11:32 PM 35.6292 -106.8058 252° West 364 419 38,000  Level Albuquerque Center
Tue 04:12:34 PM 35.5981 -106.9219 252° West 361 415 38,000  Level Albuquerque Center
Tue 04:13:36 PM 35.5669 -107.0372 252° West 360 414 38,000  Level Albuquerque Center
Tue 04:14:37 PM 35.5292 -107.1711 251° West 351 404 38,000  Level Albuquerque Center
Tue 04:15:39 PM 35.4978 -107.2892 252° West 354 407 38,000  Level Albuquerque Center
Tue 04:16:41 PM 35.4664 -107.4014 251° West 359 413 38,000  Level Albuquerque Center
Tue 04:17:43 PM 35.4292 -107.5333 251° West 364 419 38,000  Level Albuquerque Center
Tue 04:18:45 PM 35.3978 -107.6475 251° West 367 422 38,000  Level Albuquerque Center
Tue 04:19:47 PM 35.3661 -107.7592 251° West 365 420 38,000  Level Albuquerque Center
Tue 04:20:49 PM 35.3308 -107.8892 252° West 361 415 38,000  Level Albuquerque Center
Tue 04:21:51 PM 35.2992 -107.9992 251° West 358 412 38,000  Level Albuquerque Center
Tue 04:22:53 PM 35.2625 -108.1317 251° West 364 419 38,000  Level Albuquerque Center
Tue 04:23:55 PM 35.2300 -108.2456 251° West 367 422 38,000  Level Albuquerque Center
Tue 04:24:56 PM 35.1922 -108.3783 251° West 369 425 38,000  Level Albuquerque Center
Tue 04:26:00 PM 35.1542 -108.5015 249° West  Level FlightAware Approximate
Tue 04:27:00 PM 35.1236 -108.6197 249° West 362 417 38,000  Level Albuquerque Center
Tue 04:28:02 PM 35.0908 -108.7300 250° West 361 415 38,000 -484 Level Albuquerque Center
Tue 04:29:04 PM 35.0592 -108.8406 251° West 360 414 37,000 -532 Descending Albuquerque Center
Tue 04:30:06 PM 35.0219 -108.9692 251° West 359 413 36,900 -484 Descending Albuquerque Center
Tue 04:31:08 PM 34.9900 -109.0778 250° West 357 411 36,000 -435 Descending Albuquerque Center
Tue 04:32:10 PM 34.9497 -109.2053 249° West 359 413 36,000  Level Albuquerque Center
Tue 04:33:11 PM 34.9094 -109.3136 246° West 364 419 36,000  Level Albuquerque Center
Tue 04:34:13 PM 34.8644 -109.4408 247° West 365 420 36,000  Level Albuquerque Center
Tue 04:35:15 PM 34.8222 -109.5467 244° Southwest 363 418 36,000  Level Albuquerque Center
Tue 04:36:17 PM 34.7828 -109.6539 246° West 363 418 36,000  Level Albuquerque Center
Tue 04:37:19 PM 34.7364 -109.7808 246° West 366 421 36,000  Level Albuquerque Center
Tue 04:38:21 PM 34.6969 -109.8883 246° West 365 420 36,000  Level Albuquerque Center
Tue 04:39:23 PM 34.6500 -110.0119 245° Southwest 362 417 36,000  Level Albuquerque Center
Tue 04:40:25 PM 34.6125 -110.1233 248° West 371 427 36,000 -484 Level Albuquerque Center
Tue 04:41:27 PM 34.5675 -110.2506 247° West 366 421 35,000 -1,210 Descending Albuquerque Center
Tue 04:42:29 PM 34.5256 -110.3447 242° Southwest 343 395 33,500 -1,500 Descending Albuquerque Center
Tue 04:43:31 PM 34.4881 -110.4503 247° West 364 419 31,900 -1,887 Descending Albuquerque Center
Tue 04:44:33 PM 34.4431 -110.5753 246° West 346 398 29,600 -2,049 Descending Albuquerque Center
Tue 04:45:34 PM 34.4033 -110.6767 245° Southwest 336 387 27,700 -1,756 Descending Albuquerque Center
Tue 04:46:36 PM 34.3572 -110.7822 242° Southwest 351 404 26,000 -1,935 Descending Albuquerque Center
Tue 04:47:38 PM 34.2972 -110.8714 231° Southwest 344 396 23,700 -1,984 Descending Albuquerque Center
Tue 04:48:40 PM 34.2331 -110.9531 226° Southwest 339 390 21,900 -1,742 Descending Albuquerque Center
Tue 04:49:42 PM 34.1714 -111.0333 227° Southwest 333 383 20,100 -1,984 Descending Albuquerque Center
Tue 04:50:44 PM 34.0956 -111.1308 227° Southwest 330 380 17,800 -1,984 Descending Albuquerque Center
Tue 04:51:46 PM 34.0319 -111.2114 226° Southwest 332 382 16,000 -1,742 Descending Albuquerque Center
Tue 04:52:48 PM 33.9711 -111.2903 227° Southwest 324 373 14,200 -1,694 Descending Albuquerque Center
Tue 04:53:50 PM 33.9114 -111.3661 227° Southwest 313 360 12,500 -1,306 Descending Albuquerque Center
Tue 04:54:52 PM 33.8500 -111.4333 222° Southwest 294 338 11,500 -871 Descending Albuquerque Center
Tue 04:55:54 PM 33.7836 -111.4886 215° Southwest 289 333 10,700 -683 Descending Albuquerque Center
Tue 04:56:55 PM 33.7228 -111.5411 216° Southwest 270 311 10,100 -829 Descending Albuquerque Center
Tue 04:57:57 PM 33.6672 -111.5861 214° Southwest 243 280 9,000 -1,065 Descending Albuquerque Center
Tue 04:58:59 PM 33.5883 -111.6003 189° South 237 273 7,900 -1,016 Descending Albuquerque Center
Tue 05:00:01 PM 33.5289 -111.6136 191° South 220 253 6,900 -1,016 Descending Albuquerque Center
Tue 05:01:03 PM 33.4714 -111.6247 189° South 211 243 5,800 -1,113 Descending Albuquerque Center
Tue 05:02:05 PM 33.4417 -111.6756 235° Southwest 205 236 4,600 -823 Descending Albuquerque Center
Tue 05:03:07 PM 33.4419 -111.7406 270° West 196 226 4,100 -242 Descending Albuquerque Center
Tue 05:04:09 PM 33.4403 -111.8056 268° West 195 224 4,100 -439 Level Albuquerque Center
Tue 05:05:10 PM 33.4411 -111.8667 271° West 187 215 3,200 -976 Descending Albuquerque Center
Tue 05:06:12 PM 33.4411 -111.9394 270° West 183 211 2,100 -919 Descending Albuquerque Center
Tue 05:07:14 PM 33.4400 -111.9872 268° West 147 169 1,300 -774 Descending Albuquerque Center
Tue 05:09:00 PM 33.4343 -112.0116 270° West  Level Estimated

Login

Don't have an account? Register now (free) for customized features, flight alerts, and more!